createdAt,value
2022-11-26T00:00:20.563Z,86.34
2022-11-26T00:01:20.599Z,86.44
2022-11-26T00:02:20.768Z,86.34
2022-11-26T00:03:20.727Z,86.54
2022-11-26T00:04:20.687Z,86.25
2022-11-26T00:06:20.736Z,86.44
2022-11-26T00:07:20.808Z,86.54
2022-11-26T00:08:21.040Z,86.63
2022-11-26T00:09:20.818Z,86.63
2022-11-26T00:10:20.861Z,86.54
2022-11-26T00:11:20.872Z,86.34
2022-11-26T00:12:20.899Z,86.63
2022-11-26T00:13:20.927Z,86.44
2022-11-26T00:14:20.959Z,86.44
2022-11-26T00:15:20.988Z,86.63
2022-11-26T00:16:21.071Z,86.82
2022-11-26T00:17:21.043Z,86.44
2022-11-26T00:18:21.074Z,86.25
2022-11-26T00:19:21.121Z,86.44
2022-11-26T00:20:21.124Z,86.44
2022-11-26T00:21:21.465Z,86.44
2022-11-26T00:22:21.188Z,86.44
2022-11-26T00:24:21.235Z,86.54
2022-11-26T00:25:21.261Z,86.63
2022-11-26T00:27:21.621Z,86.54
2022-11-26T00:28:21.346Z,86.54
2022-11-26T00:29:21.474Z,86.44
2022-11-26T00:30:21.410Z,87.01
2022-11-26T00:31:21.543Z,86.44
2022-11-26T00:32:21.464Z,86.44
2022-11-26T00:33:21.797Z,86.82
2022-11-26T00:34:21.515Z,87.11
2022-11-26T00:35:21.568Z,86.92
2022-11-26T00:36:21.570Z,86.92
2022-11-26T00:37:21.599Z,86.72
2022-11-26T00:38:21.634Z,87.30
2022-11-26T00:39:21.953Z,87.30
2022-11-26T00:41:21.709Z,87.11
2022-11-26T00:42:21.736Z,86.82
2022-11-26T00:43:21.771Z,86.82
2022-11-26T00:44:21.799Z,87.11
2022-11-26T00:45:21.831Z,87.01
2022-11-26T00:46:21.933Z,86.82
2022-11-26T00:47:21.881Z,87.21
2022-11-26T00:48:21.904Z,86.82
2022-11-26T00:49:21.938Z,87.01
2022-11-26T00:50:21.976Z,86.72
2022-11-26T00:51:22.014Z,87.01
2022-11-26T00:52:22.022Z,87.01
2022-11-26T00:54:22.074Z,86.72
2022-11-26T00:55:22.100Z,86.82
2022-11-26T00:56:22.128Z,86.82
2022-11-26T00:57:22.158Z,86.92
2022-11-26T00:58:22.184Z,87.49
2022-11-26T01:00:22.245Z,86.72
2022-11-26T01:01:22.391Z,87.30
2022-11-26T01:04:22.602Z,87.49
2022-11-26T01:05:22.385Z,87.40
2022-11-26T01:06:22.407Z,87.30
2022-11-26T01:07:22.567Z,87.21
2022-11-26T01:08:22.461Z,87.40
2022-11-26T01:09:22.498Z,87.30
2022-11-26T01:11:22.566Z,87.11
2022-11-26T01:12:22.585Z,87.40
2022-11-26T01:13:22.602Z,87.40
2022-11-26T01:14:22.636Z,87.11
2022-11-26T01:15:22.659Z,87.11
2022-11-26T01:16:22.757Z,87.40
2022-11-26T01:17:22.718Z,87.30
2022-11-26T01:18:23.044Z,87.40
2022-11-26T01:19:22.770Z,87.30
2022-11-26T01:20:25.547Z,87.21
2022-11-26T01:21:22.829Z,87.30
2022-11-26T01:22:22.857Z,87.40
2022-11-26T01:23:22.908Z,87.21
2022-11-26T01:24:23.162Z,87.30
2022-11-26T01:25:22.938Z,87.11
2022-11-26T01:26:22.976Z,87.21
2022-11-26T01:27:22.995Z,87.49
2022-11-26T01:28:23.021Z,87.40
2022-11-26T01:29:23.055Z,87.49
2022-11-26T01:30:23.379Z,87.49
2022-11-26T01:31:23.269Z,87.49
2022-11-26T01:33:23.162Z,87.30
2022-11-26T01:34:23.186Z,87.21
2022-11-26T01:35:23.217Z,87.49
2022-11-26T01:36:23.246Z,87.30
2022-11-26T01:38:23.309Z,87.49
2022-11-26T01:39:23.349Z,87.49
2022-11-26T01:40:23.359Z,87.49
2022-11-26T01:41:23.387Z,87.49
2022-11-26T01:42:23.416Z,87.30
2022-11-26T01:43:23.440Z,87.49
2022-11-26T01:45:23.544Z,87.40
2022-11-26T01:46:23.536Z,87.49
2022-11-26T01:47:23.558Z,87.49
2022-11-26T01:48:23.578Z,87.49
2022-11-26T01:49:23.608Z,87.40
2022-11-26T01:50:23.640Z,87.11
2022-11-26T01:51:23.668Z,87.30
2022-11-26T01:54:23.751Z,87.49
2022-11-26T01:55:23.797Z,87.40
2022-11-26T01:56:23.803Z,87.30
2022-11-26T01:57:23.832Z,87.11
2022-11-26T01:58:23.862Z,87.30
2022-11-26T01:59:23.887Z,87.30
2022-11-26T02:00:23.933Z,87.30
2022-11-26T02:01:24.295Z,87.68
2022-11-26T02:02:24.030Z,87.21
2022-11-26T02:03:24.003Z,87.40
2022-11-26T02:05:24.155Z,87.98
2022-11-26T02:06:24.087Z,88.07
2022-11-26T02:07:24.441Z,87.98
2022-11-26T02:08:24.145Z,87.98
2022-11-26T02:09:24.168Z,87.98
2022-11-26T02:10:24.198Z,88.07
2022-11-26T02:11:24.245Z,87.98
2022-11-26T02:12:24.351Z,87.78
2022-11-26T02:13:24.282Z,87.78
2022-11-26T02:14:24.306Z,87.68
2022-11-26T02:15:24.335Z,87.88
2022-11-26T02:16:24.422Z,87.88
2022-11-26T02:17:24.402Z,87.98
2022-11-26T02:18:24.424Z,87.68
2022-11-26T02:19:24.452Z,87.88
2022-11-26T02:20:24.477Z,87.88
2022-11-26T02:21:24.501Z,87.88
2022-11-26T02:22:24.537Z,87.78
2022-11-26T02:23:24.561Z,88.17
2022-11-26T02:24:24.591Z,87.88
2022-11-26T02:25:25.216Z,88.55
2022-11-26T02:26:24.745Z,88.65
2022-11-26T02:27:24.696Z,88.55
2022-11-26T02:28:24.708Z,88.26
2022-11-26T02:29:24.731Z,88.65
2022-11-26T02:30:24.752Z,88.35
2022-11-26T02:31:24.813Z,88.45
2022-11-26T02:32:25.110Z,88.65
2022-11-26T02:33:24.837Z,88.84
2022-11-26T02:34:24.976Z,88.84
2022-11-26T02:35:24.894Z,88.74
2022-11-26T02:36:24.925Z,88.74
2022-11-26T02:37:24.948Z,88.84
2022-11-26T02:38:24.978Z,88.26
2022-11-26T02:39:25.003Z,88.45
2022-11-26T02:40:25.033Z,88.26
2022-11-26T02:41:25.065Z,88.65
2022-11-26T02:42:25.091Z,88.55
2022-11-26T02:43:25.138Z,88.26
2022-11-26T02:44:25.145Z,88.65
2022-11-26T02:45:25.534Z,88.55
2022-11-26T02:46:25.249Z,88.45
2022-11-26T02:47:25.232Z,88.17
2022-11-26T02:49:25.287Z,88.35
2022-11-26T02:50:25.312Z,88.26
2022-11-26T02:51:27.497Z,88.55
2022-11-26T02:52:25.365Z,88.45
2022-11-26T02:53:25.396Z,88.65
2022-11-26T02:55:25.448Z,88.65
2022-11-26T02:56:25.477Z,88.55
2022-11-26T02:57:25.806Z,88.26
2022-11-26T02:58:25.536Z,88.17
2022-11-26T02:59:25.587Z,88.45
2022-11-26T03:00:25.592Z,88.55
2022-11-26T03:01:25.697Z,88.45
2022-11-26T03:02:25.652Z,88.74
2022-11-26T03:03:25.674Z,88.74
2022-11-26T03:04:25.820Z,88.65
2022-11-26T03:05:25.732Z,88.45
2022-11-26T03:06:25.838Z,88.55
2022-11-26T03:07:25.860Z,88.93
2022-11-26T03:08:25.815Z,88.74
2022-11-26T03:09:25.859Z,88.55
2022-11-26T03:10:25.869Z,88.65
2022-11-26T03:11:25.951Z,88.45
2022-11-26T03:12:25.927Z,88.65
2022-11-26T03:13:25.954Z,88.93
2022-11-26T03:14:25.982Z,88.07
2022-11-26T03:15:26.031Z,88.35
2022-11-26T03:16:26.141Z,88.45
2022-11-26T03:17:26.067Z,88.45
2022-11-26T03:18:26.843Z,88.55
2022-11-26T03:19:26.123Z,88.65
2022-11-26T03:20:26.156Z,88.35
2022-11-26T03:21:26.174Z,88.35
2022-11-26T03:22:26.208Z,88.35
2022-11-26T03:23:26.233Z,88.17
2022-11-26T03:24:26.268Z,88.45
2022-11-26T03:25:26.288Z,88.45
2022-11-26T03:26:26.324Z,88.26
2022-11-26T03:27:26.348Z,88.65
2022-11-26T03:28:26.375Z,88.26
2022-11-26T03:29:26.506Z,88.65
2022-11-26T03:30:26.430Z,88.74
2022-11-26T03:31:26.538Z,88.84
2022-11-26T03:32:26.488Z,88.35
2022-11-26T03:33:26.527Z,88.26
2022-11-26T03:34:26.541Z,88.55
2022-11-26T03:35:26.566Z,88.26
2022-11-26T03:37:26.622Z,88.65
2022-11-26T03:38:26.705Z,88.74
2022-11-26T03:39:26.991Z,88.26
2022-11-26T03:40:26.708Z,88.26
2022-11-26T03:41:26.741Z,88.74
2022-11-26T03:42:26.769Z,88.45
2022-11-26T03:43:26.797Z,88.17
2022-11-26T03:44:26.816Z,88.65
2022-11-26T03:45:27.053Z,88.65
2022-11-26T03:46:26.876Z,88.55
2022-11-26T03:47:26.932Z,88.26
2022-11-26T03:48:26.938Z,88.35
2022-11-26T03:49:26.957Z,88.26
2022-11-26T03:50:26.986Z,88.35
2022-11-26T03:51:27.016Z,88.65
2022-11-26T03:52:27.448Z,88.65
2022-11-26T03:53:27.178Z,88.35
2022-11-26T03:54:27.098Z,88.74
2022-11-26T03:55:27.127Z,88.35
2022-11-26T03:56:27.286Z,88.65
2022-11-26T03:57:27.180Z,88.55
2022-11-26T03:58:27.209Z,88.55
2022-11-26T03:59:27.242Z,88.26
2022-11-26T04:00:27.273Z,88.45
2022-11-26T04:01:27.393Z,88.84
2022-11-26T04:02:27.371Z,88.55
2022-11-26T04:03:27.476Z,88.35
2022-11-26T04:04:27.384Z,88.35
2022-11-26T04:05:27.659Z,88.45
2022-11-26T04:06:27.434Z,88.45
2022-11-26T04:07:27.514Z,88.26
2022-11-26T04:08:27.491Z,88.17
2022-11-26T04:09:27.548Z,88.17
2022-11-26T04:10:27.646Z,88.65
2022-11-26T04:11:27.583Z,88.65
2022-11-26T04:12:27.626Z,89.03
2022-11-26T04:13:27.727Z,89.03
2022-11-26T04:14:27.660Z,89.37
2022-11-26T04:15:27.680Z,89.03
2022-11-26T04:17:27.747Z,89.03
2022-11-26T04:18:28.023Z,89.03
2022-11-26T04:19:27.830Z,89.03
2022-11-26T04:20:27.921Z,88.93
2022-11-26T04:21:27.854Z,88.93
2022-11-26T04:22:27.899Z,89.03
2022-11-26T04:23:27.908Z,88.84
2022-11-26T04:24:28.183Z,89.03
2022-11-26T04:25:27.983Z,89.12
2022-11-26T04:26:27.988Z,88.93
2022-11-26T04:27:28.020Z,88.93
2022-11-26T04:28:28.046Z,88.98
2022-11-26T04:29:28.080Z,89.12
2022-11-26T04:30:29.927Z,88.74
2022-11-26T04:31:28.185Z,88.74
2022-11-26T04:32:28.323Z,88.84
2022-11-26T04:33:28.191Z,88.93
2022-11-26T04:34:28.215Z,88.55
2022-11-26T04:35:28.277Z,89.03
2022-11-26T04:36:28.269Z,88.93
2022-11-26T04:38:28.328Z,88.79
2022-11-26T04:39:28.351Z,88.45
2022-11-26T04:40:28.381Z,88.93
2022-11-26T04:41:28.410Z,88.55
2022-11-26T04:42:28.740Z,88.93
2022-11-26T04:43:28.464Z,88.74
2022-11-26T04:44:28.495Z,88.65
2022-11-26T04:45:28.532Z,88.45
2022-11-26T04:46:28.549Z,88.74
2022-11-26T04:47:28.579Z,88.74
2022-11-26T04:48:28.601Z,88.74
2022-11-26T04:49:28.888Z,88.35
2022-11-26T04:50:28.659Z,88.74
2022-11-26T04:51:28.705Z,88.12
2022-11-26T04:52:28.720Z,88.17
2022-11-26T04:53:28.741Z,88.51
2022-11-26T04:54:28.768Z,88.26
2022-11-26T04:55:28.799Z,88.31
2022-11-26T04:56:28.829Z,88.26
2022-11-26T04:57:28.855Z,88.31
2022-11-26T04:58:28.881Z,88.74
2022-11-26T04:59:28.910Z,88.93
2022-11-26T05:00:28.941Z,88.02
2022-11-26T05:01:29.081Z,88.41
2022-11-26T05:02:29.360Z,88.41
2022-11-26T05:03:29.020Z,88.41
2022-11-26T05:04:29.049Z,88.22
2022-11-26T05:05:29.072Z,88.31
2022-11-26T05:06:29.108Z,88.22
2022-11-26T05:07:29.243Z,88.31
2022-11-26T05:08:29.466Z,88.41
2022-11-26T05:09:29.187Z,88.12
2022-11-26T05:10:29.212Z,88.60
2022-11-26T05:11:29.241Z,88.51
2022-11-26T05:12:29.275Z,88.51
2022-11-26T05:13:29.297Z,88.35
2022-11-26T05:14:29.573Z,88.60
2022-11-26T05:15:29.351Z,88.31
2022-11-26T05:16:29.412Z,88.31
2022-11-26T05:17:29.407Z,88.60
2022-11-26T05:18:29.440Z,88.51
2022-11-26T05:19:29.489Z,88.60
2022-11-26T05:20:29.493Z,88.41
2022-11-26T05:21:29.518Z,88.51
2022-11-26T05:22:29.553Z,88.60
2022-11-26T05:23:29.602Z,88.41
2022-11-26T05:24:29.711Z,88.51
2022-11-26T05:25:29.628Z,88.51
2022-11-26T05:26:29.661Z,88.41
2022-11-26T05:27:29.935Z,88.22
2022-11-26T05:29:29.744Z,88.60
2022-11-26T05:30:29.773Z,88.51
2022-11-26T05:31:29.849Z,88.60
2022-11-26T05:32:29.827Z,88.60
2022-11-26T05:33:29.853Z,89.08
2022-11-26T05:34:29.878Z,89.08
2022-11-26T05:35:29.913Z,88.89
2022-11-26T05:36:30.035Z,88.79
2022-11-26T05:37:29.966Z,88.89
2022-11-26T05:38:29.995Z,88.70
2022-11-26T05:39:30.037Z,88.60
2022-11-26T05:40:30.295Z,88.79
2022-11-26T05:41:30.074Z,88.41
2022-11-26T05:42:30.105Z,88.70
2022-11-26T05:43:30.131Z,88.51
2022-11-26T05:44:30.293Z,88.31
2022-11-26T05:45:30.236Z,88.70
2022-11-26T05:46:30.211Z,88.70
2022-11-26T05:47:30.493Z,88.60
2022-11-26T05:48:30.269Z,88.70
2022-11-26T05:49:30.296Z,88.60
2022-11-26T05:50:30.327Z,88.41
2022-11-26T05:51:30.352Z,88.51
2022-11-26T05:52:30.380Z,88.70
2022-11-26T05:53:30.423Z,88.41
2022-11-26T05:54:30.440Z,88.60
2022-11-26T05:55:30.487Z,88.84
2022-11-26T05:56:30.499Z,88.70
2022-11-26T05:57:30.520Z,88.74
2022-11-26T05:58:30.550Z,88.60
2022-11-26T05:59:30.582Z,88.41
2022-11-26T06:00:30.851Z,88.60
2022-11-26T06:01:30.627Z,88.60
2022-11-26T06:02:30.746Z,88.70
2022-11-26T06:03:30.786Z,88.70
2022-11-26T06:04:30.715Z,88.60
2022-11-26T06:05:30.743Z,88.22
2022-11-26T06:06:31.020Z,88.70
2022-11-26T06:07:30.848Z,88.55
2022-11-26T06:08:30.835Z,88.51
2022-11-26T06:09:30.877Z,88.51
2022-11-26T06:10:30.879Z,88.60
2022-11-26T06:12:31.207Z,88.60
2022-11-26T06:13:30.960Z,88.60
2022-11-26T06:14:31.091Z,88.60
2022-11-26T06:15:31.017Z,88.70
2022-11-26T06:17:31.076Z,88.60
2022-11-26T06:18:31.103Z,88.22
2022-11-26T06:19:31.131Z,88.31
2022-11-26T06:20:31.156Z,88.60
2022-11-26T06:21:31.188Z,88.70
2022-11-26T06:22:31.217Z,88.51
2022-11-26T06:23:31.241Z,88.70
2022-11-26T06:24:31.271Z,88.70
2022-11-26T06:25:31.295Z,88.45
2022-11-26T06:26:31.321Z,88.51
2022-11-26T06:27:31.351Z,88.41
2022-11-26T06:29:31.425Z,88.70
2022-11-26T06:30:31.440Z,88.70
2022-11-26T06:31:31.555Z,88.41
2022-11-26T06:32:31.497Z,88.60
2022-11-26T06:33:31.519Z,88.60
2022-11-26T06:34:31.549Z,88.41
2022-11-26T06:35:32.171Z,88.79
2022-11-26T06:36:31.846Z,88.79
2022-11-26T06:37:31.995Z,88.70
2022-11-26T06:38:32.063Z,88.31
2022-11-26T06:39:32.356Z,88.51
2022-11-26T06:40:31.727Z,88.70
2022-11-26T06:41:31.741Z,88.12
2022-11-26T06:42:31.770Z,88.70
2022-11-26T06:43:31.800Z,88.31
2022-11-26T06:44:31.821Z,88.31
2022-11-26T06:45:31.942Z,88.31
2022-11-26T06:47:31.907Z,88.51
2022-11-26T06:48:31.931Z,88.31
2022-11-26T06:49:32.268Z,88.41
2022-11-26T06:50:32.749Z,88.51
2022-11-26T06:51:32.026Z,88.51
2022-11-26T06:52:32.045Z,88.60
2022-11-26T06:53:32.071Z,88.31
2022-11-26T06:54:32.198Z,88.51
2022-11-26T06:55:32.130Z,88.31
2022-11-26T06:56:32.157Z,88.41
2022-11-26T06:57:32.187Z,88.51
2022-11-26T06:58:32.215Z,88.41
2022-11-26T06:59:32.240Z,88.41
2022-11-26T07:00:32.372Z,88.60
2022-11-26T07:01:32.706Z,88.41
2022-11-26T07:02:32.436Z,88.41
2022-11-26T07:03:33.576Z,88.41
2022-11-26T07:04:32.374Z,88.41
2022-11-26T07:05:32.408Z,88.41
2022-11-26T07:06:32.434Z,88.31
2022-11-26T07:07:32.485Z,88.70
2022-11-26T07:08:32.488Z,88.79
2022-11-26T07:09:32.515Z,88.60
2022-11-26T07:10:32.542Z,88.51
2022-11-26T07:11:32.572Z,88.89
2022-11-26T07:12:32.595Z,89.22
2022-11-26T07:13:32.625Z,89.56
2022-11-26T07:14:32.650Z,89.85
2022-11-26T07:16:32.805Z,89.27
2022-11-26T07:17:32.757Z,89.37
2022-11-26T07:18:32.773Z,89.37
2022-11-26T07:19:32.792Z,89.75
2022-11-26T07:21:32.853Z,89.08
2022-11-26T07:22:32.890Z,89.08
2022-11-26T07:23:32.901Z,89.27
2022-11-26T07:24:32.931Z,88.89
2022-11-26T07:25:32.961Z,89.27
2022-11-26T07:26:33.234Z,89.18
2022-11-26T07:27:33.014Z,89.18
2022-11-26T07:28:33.042Z,88.79
2022-11-26T07:29:33.068Z,88.89
2022-11-26T07:30:33.106Z,88.98
2022-11-26T07:31:33.178Z,88.98
2022-11-26T07:32:33.151Z,88.98
2022-11-26T07:33:33.199Z,88.70
2022-11-26T07:34:33.205Z,88.70
2022-11-26T07:35:33.235Z,88.51
2022-11-26T07:36:33.264Z,88.31
2022-11-26T07:37:33.292Z,88.70
2022-11-26T07:38:33.316Z,88.60
2022-11-26T07:39:33.352Z,88.60
2022-11-26T07:40:33.372Z,88.60
2022-11-26T07:41:33.403Z,88.79
2022-11-26T07:42:33.428Z,88.51
2022-11-26T07:43:33.460Z,88.70
2022-11-26T07:44:33.734Z,88.70
2022-11-26T07:45:33.512Z,88.70
2022-11-26T07:46:33.621Z,88.31
2022-11-26T07:47:33.576Z,88.31
2022-11-26T07:48:33.598Z,88.31
2022-11-26T07:49:33.645Z,88.31
2022-11-26T07:50:33.649Z,88.22
2022-11-26T07:51:33.930Z,88.41
2022-11-26T07:52:33.704Z,88.41
2022-11-26T07:53:33.733Z,88.51
2022-11-26T07:54:33.764Z,88.51
2022-11-26T07:55:33.788Z,88.41
2022-11-26T07:56:33.817Z,88.41
2022-11-26T07:57:33.846Z,88.79
2022-11-26T07:58:33.873Z,88.22
2022-11-26T07:59:33.905Z,88.51
2022-11-26T08:00:33.934Z,88.22
2022-11-26T08:01:34.073Z,88.31
2022-11-26T08:02:34.036Z,88.26
2022-11-26T08:03:34.014Z,87.88
2022-11-26T08:04:34.038Z,87.84
2022-11-26T08:05:34.086Z,87.84
2022-11-26T08:07:34.161Z,88.17
2022-11-26T08:08:34.151Z,87.93
2022-11-26T08:09:34.189Z,87.84
2022-11-26T08:10:34.209Z,88.26
2022-11-26T08:11:34.286Z,87.88
2022-11-26T08:12:34.261Z,88.17
2022-11-26T08:13:34.291Z,87.59
2022-11-26T08:14:34.320Z,87.68
2022-11-26T08:15:34.348Z,87.98
2022-11-26T08:16:34.466Z,87.88
2022-11-26T08:17:34.751Z,87.78
2022-11-26T08:18:34.428Z,88.17
2022-11-26T08:20:34.486Z,87.40
2022-11-26T08:21:34.529Z,87.78
2022-11-26T08:22:34.828Z,87.49
2022-11-26T08:23:34.576Z,87.78
2022-11-26T08:25:34.627Z,87.78
2022-11-26T08:26:39.718Z,87.59
2022-11-26T08:27:34.679Z,87.59
2022-11-26T08:28:34.727Z,87.68
2022-11-26T08:29:34.986Z,87.68
2022-11-26T08:30:34.762Z,87.68
2022-11-26T08:31:35.044Z,87.59
2022-11-26T08:32:34.817Z,87.68
2022-11-26T08:33:35.148Z,87.88
2022-11-26T08:34:34.893Z,87.88
2022-11-26T08:36:04.960Z,87.88
2022-11-26T08:36:35.231Z,87.98
2022-11-26T08:37:34.976Z,87.49
2022-11-26T08:38:34.985Z,87.68
2022-11-26T08:39:35.017Z,87.40
2022-11-26T08:41:35.066Z,87.30
2022-11-26T08:42:35.102Z,87.30
2022-11-26T08:44:04.425Z,87.30
2022-11-26T08:44:35.162Z,87.49
2022-11-26T08:45:35.177Z,87.30
2022-11-26T08:46:35.264Z,87.11
2022-11-26T08:47:35.235Z,87.30
2022-11-26T08:48:35.263Z,87.49
2022-11-26T08:49:35.543Z,87.01
2022-11-26T08:50:35.323Z,87.21
2022-11-26T08:51:35.349Z,87.01
2022-11-26T08:52:35.378Z,86.82
2022-11-26T08:53:35.424Z,86.82
2022-11-26T08:54:35.432Z,86.92
2022-11-26T08:56:35.740Z,86.92
2022-11-26T08:57:35.515Z,86.72
2022-11-26T08:58:35.541Z,86.72
2022-11-26T08:59:35.571Z,86.82
2022-11-26T09:00:35.598Z,86.82
2022-11-26T09:01:35.729Z,86.92
2022-11-26T09:02:35.730Z,87.01
2022-11-26T09:03:35.784Z,87.21
2022-11-26T09:04:35.718Z,87.21
2022-11-26T09:05:35.743Z,86.82
2022-11-26T09:06:35.768Z,86.44
2022-11-26T09:07:35.924Z,86.44
2022-11-26T09:08:35.822Z,86.63
2022-11-26T09:09:36.173Z,86.34
2022-11-26T09:10:35.980Z,86.44
2022-11-26T09:12:35.935Z,86.82
2022-11-26T09:13:35.963Z,86.96
2022-11-26T09:14:36.170Z,87.01
2022-11-26T09:15:36.318Z,86.92
2022-11-26T09:16:36.214Z,86.87
2022-11-26T09:17:36.074Z,87.30
2022-11-26T09:18:36.107Z,86.87
2022-11-26T09:19:36.129Z,86.87
2022-11-26T09:20:36.160Z,86.87
2022-11-26T09:21:37.538Z,87.01
2022-11-26T09:22:36.321Z,87.05
2022-11-26T09:23:36.243Z,86.63
2022-11-26T09:24:36.461Z,87.01
2022-11-26T09:25:36.317Z,86.87
2022-11-26T09:26:36.330Z,87.01
2022-11-26T09:27:36.654Z,87.15
2022-11-26T09:28:36.382Z,87.15
2022-11-26T09:29:36.429Z,86.48
2022-11-26T09:30:36.438Z,86.48
2022-11-26T09:31:37.070Z,86.38
2022-11-26T09:32:36.545Z,86.15
2022-11-26T09:33:36.518Z,86.29
2022-11-26T09:34:36.966Z,86.58
2022-11-26T09:35:36.584Z,86.38
2022-11-26T09:36:36.608Z,86.48
2022-11-26T09:37:36.638Z,86.38
2022-11-26T09:38:36.676Z,86.77
2022-11-26T09:39:36.690Z,86.68
2022-11-26T09:40:36.738Z,86.68
2022-11-26T09:41:36.768Z,86.87
2022-11-26T09:42:36.778Z,86.58
2022-11-26T09:43:36.810Z,86.19
2022-11-26T09:44:37.311Z,86.29
2022-11-26T09:45:36.886Z,86.19
2022-11-26T09:46:50.811Z,86.48
2022-11-26T09:47:36.926Z,86.10
2022-11-26T09:48:36.980Z,86.38
2022-11-26T09:49:36.972Z,86.29
2022-11-26T09:50:36.997Z,86.29
2022-11-26T09:51:37.028Z,86.19
2022-11-26T09:52:37.077Z,86.38
2022-11-26T09:53:37.083Z,86.38
2022-11-26T09:54:37.357Z,86.38
2022-11-26T09:55:37.148Z,86.19
2022-11-26T09:56:37.173Z,86.29
2022-11-26T09:57:37.219Z,86.19
2022-11-26T09:58:37.227Z,86.19
2022-11-26T09:59:37.354Z,86.29
2022-11-26T10:00:37.283Z,86.10
2022-11-26T10:01:37.388Z,86.10
2022-11-26T10:02:37.439Z,85.91
2022-11-26T10:03:37.368Z,85.71
2022-11-26T10:04:38.047Z,85.81
2022-11-26T10:05:37.419Z,85.91
2022-11-26T10:06:37.457Z,85.81
2022-11-26T10:07:37.594Z,85.71
2022-11-26T10:09:37.535Z,85.91
2022-11-26T10:10:37.559Z,85.81
2022-11-26T10:11:37.595Z,86.00
2022-11-26T10:12:56.269Z,86.00
2022-11-26T10:13:37.669Z,85.91
2022-11-26T10:14:37.976Z,86.10
2022-11-26T10:15:37.706Z,85.91
2022-11-26T10:16:37.779Z,85.52
2022-11-26T10:18:38.052Z,86.19
2022-11-26T10:19:37.820Z,86.24
2022-11-26T10:20:37.853Z,86.14
2022-11-26T10:21:58.022Z,85.47
2022-11-26T10:22:37.909Z,85.85
2022-11-26T10:23:37.944Z,85.57
2022-11-26T10:24:38.225Z,85.37
2022-11-26T10:27:38.296Z,85.18
2022-11-26T10:28:38.076Z,85.37
2022-11-26T10:29:38.122Z,85.37
2022-11-26T10:30:38.132Z,85.28
2022-11-26T10:31:38.220Z,85.57
2022-11-26T10:32:38.183Z,85.08
2022-11-26T10:33:38.216Z,85.18
2022-11-26T10:34:39.361Z,84.89
2022-11-26T10:35:38.272Z,84.80
2022-11-26T10:37:38.328Z,84.70
2022-11-26T10:38:38.361Z,84.89
2022-11-26T10:39:38.642Z,84.99
2022-11-26T10:40:38.414Z,84.80
2022-11-26T10:42:38.474Z,84.89
2022-11-26T10:43:38.599Z,84.89
2022-11-26T10:45:38.828Z,84.99
2022-11-26T10:46:38.650Z,84.80
2022-11-26T10:47:38.623Z,84.70
2022-11-26T10:48:38.741Z,84.89
2022-11-26T10:49:38.671Z,84.80
2022-11-26T10:50:54.082Z,84.89
2022-11-26T10:51:38.727Z,84.31
2022-11-26T10:52:38.760Z,84.31
2022-11-26T10:53:38.784Z,84.22
2022-11-26T10:54:39.301Z,84.41
2022-11-26T10:55:38.842Z,84.51
2022-11-26T10:56:38.866Z,84.41
2022-11-26T10:57:38.897Z,84.22
2022-11-26T10:58:39.178Z,84.22
2022-11-26T10:59:39.323Z,84.03
2022-11-26T11:00:39.133Z,84.12
2022-11-26T11:01:39.160Z,84.03
2022-11-26T11:02:39.287Z,84.03
2022-11-26T11:04:06.685Z,83.93
2022-11-26T11:05:39.424Z,83.93
2022-11-26T11:06:39.155Z,83.93
2022-11-26T11:07:39.234Z,84.12
2022-11-26T11:08:39.214Z,83.84
2022-11-26T11:09:39.256Z,83.93
2022-11-26T11:10:39.324Z,83.64
2022-11-26T11:11:39.546Z,83.64
2022-11-26T11:12:39.332Z,83.74
2022-11-26T11:13:39.351Z,83.84
2022-11-26T11:14:42.692Z,83.64
2022-11-26T11:15:39.428Z,83.93
2022-11-26T11:16:39.557Z,83.87
2022-11-26T11:17:39.488Z,83.16
2022-11-26T11:18:39.508Z,83.45
2022-11-26T11:19:39.528Z,83.40
2022-11-26T11:20:39.560Z,83.64
2022-11-26T11:21:43.833Z,83.54
2022-11-26T11:22:39.724Z,83.30
2022-11-26T11:24:07.009Z,83.40
2022-11-26T11:24:39.666Z,83.69
2022-11-26T11:25:39.694Z,83.40
2022-11-26T11:26:39.727Z,83.30
2022-11-26T11:27:39.752Z,83.49
2022-11-26T11:28:39.783Z,83.40
2022-11-26T11:29:39.808Z,83.45
2022-11-26T11:30:39.843Z,83.49
2022-11-26T11:32:39.903Z,83.30
2022-11-26T11:33:39.945Z,83.54
2022-11-26T11:34:40.224Z,83.59
2022-11-26T11:35:39.990Z,83.59
2022-11-26T11:36:40.012Z,83.40
2022-11-26T11:37:40.043Z,83.49
2022-11-26T11:38:40.068Z,83.49
2022-11-26T11:39:40.108Z,83.40
2022-11-26T11:40:40.133Z,83.49
2022-11-26T11:41:40.159Z,83.59
2022-11-26T11:42:40.212Z,83.78
2022-11-26T11:43:40.215Z,83.59
2022-11-26T11:44:40.733Z,83.59
2022-11-26T11:45:40.321Z,83.01
2022-11-26T11:46:40.298Z,83.20
2022-11-26T11:47:40.581Z,83.11
2022-11-26T11:48:40.355Z,82.92
2022-11-26T11:49:40.405Z,83.20
2022-11-26T11:50:40.412Z,83.78
2022-11-26T11:51:40.442Z,83.59
2022-11-26T11:52:40.483Z,83.69
2022-11-26T11:53:40.749Z,83.69
2022-11-26T11:54:41.079Z,83.11
2022-11-26T11:55:40.561Z,83.20
2022-11-26T11:56:40.591Z,83.01
2022-11-26T11:57:40.615Z,83.11
2022-11-26T11:58:40.643Z,83.78
2022-11-26T11:59:40.674Z,83.69
2022-11-26T12:00:40.707Z,83.20
2022-11-26T12:01:40.774Z,83.01
2022-11-26T12:02:40.759Z,83.20
2022-11-26T12:04:41.435Z,82.92
2022-11-26T12:05:40.865Z,82.92
2022-11-26T12:06:40.876Z,82.92
2022-11-26T12:07:40.995Z,82.92
2022-11-26T12:08:40.932Z,83.11
2022-11-26T12:09:40.959Z,83.11
2022-11-26T12:10:40.990Z,83.11
2022-11-26T12:12:41.044Z,82.73
2022-11-26T12:13:41.072Z,83.01
2022-11-26T12:14:41.635Z,82.63
2022-11-26T12:15:41.134Z,82.63
2022-11-26T12:16:41.242Z,82.73
2022-11-26T12:17:41.191Z,82.82
2022-11-26T12:19:41.246Z,82.73
2022-11-26T12:20:41.283Z,82.24
2022-11-26T12:21:41.327Z,82.53
2022-11-26T12:22:41.341Z,82.15
2022-11-26T12:23:41.371Z,82.53
2022-11-26T12:24:41.596Z,82.53
2022-11-26T12:25:41.720Z,82.24
2022-11-26T12:26:41.451Z,82.63
2022-11-26T12:27:41.478Z,82.43
2022-11-26T12:28:41.519Z,82.43
2022-11-26T12:29:41.536Z,82.34
2022-11-26T12:30:41.569Z,82.43
2022-11-26T12:31:41.674Z,82.34
2022-11-26T12:32:41.633Z,82.15
2022-11-26T12:33:41.654Z,82.82
2022-11-26T12:34:41.924Z,82.82
2022-11-26T12:35:41.708Z,82.73
2022-11-26T12:36:41.739Z,82.82
2022-11-26T12:37:41.789Z,82.63
2022-11-26T12:39:41.947Z,82.73
2022-11-26T12:40:41.862Z,82.82
2022-11-26T12:41:41.885Z,82.63
2022-11-26T12:42:41.925Z,82.82
2022-11-26T12:43:41.949Z,83.01
2022-11-26T12:44:42.302Z,82.82
2022-11-26T12:45:42.091Z,82.82
2022-11-26T12:46:42.133Z,82.73
2022-11-26T12:47:42.358Z,82.82
2022-11-26T12:48:42.096Z,82.82
2022-11-26T12:49:42.117Z,82.82
2022-11-26T12:50:42.145Z,82.92
2022-11-26T12:51:42.212Z,82.73
2022-11-26T12:52:42.214Z,82.82
2022-11-26T12:53:42.702Z,82.73
2022-11-26T12:54:42.443Z,82.63
2022-11-26T12:55:42.293Z,82.73
2022-11-26T12:56:42.318Z,82.73
2022-11-26T12:57:42.404Z,82.73
2022-11-26T12:59:42.706Z,82.73
2022-11-26T13:00:42.477Z,82.63
2022-11-26T13:01:42.474Z,82.63
2022-11-26T13:02:42.539Z,82.63
2022-11-26T13:03:42.560Z,82.82
2022-11-26T13:05:45.302Z,82.82
2022-11-26T13:06:42.610Z,82.73
2022-11-26T13:07:42.764Z,82.73
2022-11-26T13:08:42.678Z,82.53
2022-11-26T13:09:42.716Z,82.92
2022-11-26T13:10:42.724Z,82.73
2022-11-26T13:11:42.755Z,82.73
2022-11-26T13:12:43.087Z,82.73
2022-11-26T13:13:42.818Z,82.82
2022-11-26T13:14:42.849Z,82.48
2022-11-26T13:15:42.900Z,82.43
2022-11-26T13:16:43.064Z,82.63
2022-11-26T13:17:42.933Z,82.15
2022-11-26T13:18:43.049Z,82.53
2022-11-26T13:19:42.987Z,82.34
2022-11-26T13:20:43.041Z,82.24
2022-11-26T13:21:43.064Z,82.34
2022-11-26T13:24:43.393Z,82.38
2022-11-26T13:25:43.180Z,82.48
2022-11-26T13:26:43.197Z,82.67
2022-11-26T13:27:43.233Z,82.53
2022-11-26T13:29:43.279Z,82.24
2022-11-26T13:30:43.522Z,82.24
2022-11-26T13:32:43.667Z,82.67
2022-11-26T13:33:43.397Z,82.24
2022-11-26T13:34:43.423Z,82.34
2022-11-26T13:35:43.456Z,82.48
2022-11-26T13:36:43.483Z,82.29
2022-11-26T13:37:43.511Z,82.38
2022-11-26T13:38:43.541Z,82.34
2022-11-26T13:39:43.668Z,82.48
2022-11-26T13:40:43.646Z,82.53
2022-11-26T13:41:43.744Z,82.67
2022-11-26T13:42:43.672Z,82.53
2022-11-26T13:43:43.684Z,82.67
2022-11-26T13:44:44.018Z,82.57